Time;durP1;ratioP1;P1;durP2;ratioP2;P2;SDS_P1;SDS_P2;PMS_P1;PMS_P2;Temp;Humidity;BMP_temperature;BMP_pressure;BME280_temperature;BME280_humidity;BME280_pressure;Samples;Min_cycle;Max_cycle;Signal;HPM_P1;HPM_P2
2023/12/26 00:00:38;;;;;;;5.13;2.00;;;7.40;60.60;;;;;;5098116;28;20286;-43
2023/12/26 00:03:06;;;;;;;2.60;1.80;;;7.40;99.90;;;;;;5097195;28;20311;-44
2023/12/26 00:05:32;;;;;;;3.27;2.07;;;7.40;99.90;;;;;;5098058;28;20193;-43
2023/12/26 00:07:58;;;;;;;4.67;2.37;;;7.40;99.90;;;;;;5098055;28;20422;-44
2023/12/26 00:10:23;;;;;;;2.83;2.07;;;7.30;99.90;;;;;;5097750;28;21062;-43
2023/12/26 00:12:49;;;;;;;4.13;1.93;;;7.30;99.90;;;;;;5098233;28;20165;-43
2023/12/26 00:15:15;;;;;;;3.80;2.27;;;7.30;99.90;;;;;;5096700;28;20185;-47
2023/12/26 00:17:40;;;;;;;2.93;2.03;;;7.20;99.90;;;;;;5097374;28;20577;-43
2023/12/26 00:20:07;;;;;;;4.90;2.30;;;7.20;99.90;;;;;;5098146;28;20169;-45
2023/12/26 00:22:34;;;;;;;4.87;1.80;;;7.20;99.90;;;;;;5099210;28;20165;-47
2023/12/26 00:25:00;;;;;;;5.33;2.73;;;7.20;99.90;;;;;;5079938;28;20430;-43
2023/12/26 00:27:26;;;;;;;5.93;2.60;;;7.20;99.90;;;;;;5097368;28;20476;-45
2023/12/26 00:29:52;;;;;;;4.00;2.93;;;7.20;99.90;;;;;;5096159;28;20501;-44
2023/12/26 00:32:17;;;;;;;8.03;2.60;;;7.20;99.90;;;;;;5096906;28;20169;-44
2023/12/26 00:34:43;;;;;;;2.77;2.03;;;7.20;99.90;;;;;;5097123;28;20246;-43
2023/12/26 00:37:09;;;;;;;4.20;1.67;;;7.20;99.90;;;;;;5098798;28;20207;-43
2023/12/26 00:39:36;;;;;;;4.50;2.23;;;7.00;1.00;;;;;;5098224;28;20169;-42
2023/12/26 00:42:02;;;;;;;2.60;1.87;;;7.10;1.00;;;;;;5098552;28;20489;-44
2023/12/26 00:44:28;;;;;;;2.90;2.30;;;7.10;1.00;;;;;;5098428;28;20411;-47
2023/12/26 00:46:53;;;;;;;6.10;2.27;;;7.00;1.00;;;;;;5098716;28;20212;-43
2023/12/26 00:49:19;;;;;;;2.50;1.93;;;7.00;1.00;;;;;;5097897;28;20682;-44
2023/12/26 00:51:44;;;;;;;4.30;2.67;;;7.00;1.00;;;;;;5097858;28;20212;-43
2023/12/26 00:54:10;;;;;;;4.20;1.93;;;7.00;1.00;;;;;;5097287;28;20184;-45
2023/12/26 00:56:35;;;;;;;3.20;1.93;;;6.90;1.00;;;;;;5097743;28;20186;-43
2023/12/26 00:59:01;;;;;;;2.63;2.00;;;6.90;1.00;;;;;;5098240;28;20603;-43
2023/12/26 01:01:26;;;;;;;2.40;2.20;;;6.90;1.00;;;;;;5096310;28;20180;-45
2023/12/26 01:03:52;;;;;;;3.70;2.13;;;6.90;1.00;;;;;;5097758;28;20271;-42
2023/12/26 01:06:17;;;;;;;3.10;2.00;;;6.90;1.00;;;;;;5097904;28;20578;-42
2023/12/26 01:08:43;;;;;;;3.13;1.83;;;7.00;1.00;;;;;;5098217;28;20251;-44
2023/12/26 01:11:09;;;;;;;3.63;2.23;;;7.00;1.00;;;;;;5097923;28;20168;-42
2023/12/26 01:13:34;;;;;;;2.40;1.57;;;6.90;1.00;;;;;;5096481;28;20574;-42
2023/12/26 01:16:04;;;;;;;2.60;2.00;;;6.90;1.00;;;;;;5096673;28;20195;-43
2023/12/26 01:18:31;;;;;;;5.87;2.17;;;7.00;1.00;;;;;;5095875;28;20257;-43
2023/12/26 01:20:57;;;;;;;3.50;2.10;;;6.90;1.00;;;;;;5095712;28;20531;-43
2023/12/26 01:23:23;;;;;;;4.60;2.40;;;7.00;99.90;;;;;;5095919;28;20784;-44
2023/12/26 01:25:48;;;;;;;4.53;2.13;;;7.00;99.90;;;;;;5095118;28;20584;-42
2023/12/26 01:28:15;;;;;;;2.63;2.00;;;7.00;99.90;;;;;;5096139;28;20195;-42
2023/12/26 01:30:40;;;;;;;2.30;1.90;;;7.00;99.90;;;;;;5096457;28;20375;-42
2023/12/26 01:33:07;;;;;;;9.90;3.30;;;6.90;99.90;;;;;;5096938;28;20423;-44
2023/12/26 01:35:33;;;;;;;3.80;2.20;;;6.90;99.90;;;;;;5097852;28;20192;-44
2023/12/26 01:37:58;;;;;;;5.43;2.30;;;6.90;99.90;;;;;;5097527;28;20430;-43
2023/12/26 01:40:24;;;;;;;2.70;2.20;;;6.90;99.90;;;;;;5097915;28;20185;-44
2023/12/26 01:42:50;;;;;;;3.77;2.50;;;7.00;99.90;;;;;;5097134;28;20585;-43
2023/12/26 01:45:16;;;;;;;4.43;1.80;;;7.00;99.90;;;;;;5095953;28;20223;-45
2023/12/26 01:47:44;;;;;;;6.00;2.40;;;7.00;99.90;;;;;;5096222;28;20406;-43
2023/12/26 01:50:10;;;;;;;2.87;2.07;;;7.00;99.90;;;;;;5096227;28;20295;-42
2023/12/26 01:52:38;;;;;;;2.73;2.33;;;7.00;99.90;;;;;;5094777;28;20874;-45
2023/12/26 01:55:04;;;;;;;2.27;1.90;;;7.00;99.90;;;;;;5094652;28;20458;-45
2023/12/26 01:57:32;;;;;;;2.90;1.90;;;6.90;99.90;;;;;;5095735;28;20422;-43
2023/12/26 01:59:58;;;;;;;2.20;1.90;;;7.00;99.90;;;;;;5096232;28;20430;-46
2023/12/26 02:02:24;;;;;;;3.80;2.13;;;7.00;99.90;;;;;;5096472;28;20414;-46
2023/12/26 02:04:50;;;;;;;3.40;1.60;;;7.10;99.90;;;;;;5096720;28;20267;-44
2023/12/26 02:07:15;;;;;;;3.53;2.00;;;7.10;99.90;;;;;;5094503;28;20930;-44
2023/12/26 02:09:41;;;;;;;3.13;2.47;;;7.10;99.90;;;;;;5095059;28;20439;-42
2023/12/26 02:12:07;;;;;;;1.90;1.63;;;7.00;99.90;;;;;;5096716;28;20249;-47
2023/12/26 02:14:33;;;;;;;2.50;1.70;;;7.10;99.90;;;;;;5100812;28;20420;-45
2023/12/26 02:17:01;;;;;;;2.93;2.13;;;7.20;24.90;;;;;;5100781;28;20430;-48
2023/12/26 02:19:26;;;;;;;2.90;1.93;;;7.10;25.60;;;;;;5101350;28;20267;-43
2023/12/26 02:21:52;;;;;;;4.40;2.00;;;7.10;29.20;;;;;;5100951;28;20508;-42
2023/12/26 02:24:17;;;;;;;2.80;1.80;;;7.10;51.90;;;;;;5100666;28;20246;-42
2023/12/26 02:26:43;;;;;;;4.93;2.10;;;7.10;50.30;;;;;;5101418;28;20264;-42
2023/12/26 02:29:10;;;;;;;4.10;1.93;;;7.20;1.00;;;;;;5100212;28;20513;-41
2023/12/26 02:31:37;;;;;;;2.27;1.93;;;7.20;1.00;;;;;;5099707;28;20503;-43
2023/12/26 02:34:02;;;;;;;3.40;2.00;;;7.20;1.00;;;;;;5099654;28;20423;-42
2023/12/26 02:36:28;;;;;;;2.00;1.60;;;7.20;1.00;;;;;;5099394;28;20884;-42
2023/12/26 02:38:53;;;;;;;3.57;1.80;;;7.20;1.00;;;;;;5099321;28;20185;-44
2023/12/26 02:41:19;;;;;;;2.37;2.10;;;7.20;1.00;;;;;;5100635;28;20187;-43
2023/12/26 02:43:44;;;;;;;3.33;2.00;;;7.20;1.00;;;;;;5099326;28;20304;-42
2023/12/26 02:46:10;;;;;;;2.60;2.10;;;7.30;1.00;;;;;;5100784;28;20212;-41
2023/12/26 02:48:36;;;;;;;2.23;1.70;;;7.30;1.00;;;;;;5099584;28;20169;-41
2023/12/26 02:51:02;;;;;;;2.53;2.00;;;7.30;1.00;;;;;;5100427;28;20280;-45
2023/12/26 02:53:28;;;;;;;2.37;1.90;;;7.30;99.90;;;;;;5100135;28;20239;-40
2023/12/26 02:55:53;;;;;;;3.97;1.80;;;7.30;99.90;;;;;;5099534;28;20545;-42
2023/12/26 02:58:20;;;;;;;2.90;2.00;;;7.40;99.90;;;;;;5099728;28;20187;-44
2023/12/26 03:00:46;;;;;;;3.93;2.17;;;7.30;99.90;;;;;;5100228;28;20233;-46
2023/12/26 03:03:11;;;;;;;3.70;2.23;;;7.30;99.90;;;;;;5099223;28;20441;-41
2023/12/26 03:05:37;;;;;;;5.20;2.20;;;7.30;40.80;;;;;;5100473;28;20890;-43
2023/12/26 03:08:03;;;;;;;3.40;1.87;;;7.30;1.00;;;;;;5099639;28;20172;-43
2023/12/26 03:10:28;;;;;;;2.07;1.80;;;7.40;1.00;;;;;;5099889;28;20173;-41
2023/12/26 03:12:54;;;;;;;4.33;2.33;;;7.40;1.00;;;;;;5099710;28;20252;-44
2023/12/26 03:15:20;;;;;;;5.13;2.20;;;7.40;99.90;;;;;;5099480;28;20245;-46
2023/12/26 03:17:45;;;;;;;3.97;1.80;;;7.40;99.90;;;;;;5099006;28;20172;-42
2023/12/26 03:20:11;;;;;;;5.60;2.00;;;7.40;1.00;;;;;;5081431;28;20165;-43
2023/12/26 03:22:39;;;;;;;3.77;2.00;;;7.40;99.90;;;;;;5099985;28;20527;-44
2023/12/26 03:25:06;;;;;;;2.33;1.77;;;7.40;99.90;;;;;;5098944;28;20172;-42
2023/12/26 03:27:31;;;;;;;4.50;1.73;;;7.40;99.90;;;;;;5099696;28;20891;-45
2023/12/26 03:29:57;;;;;;;3.60;2.00;;;7.40;10.80;;;;;;5100063;28;20669;-43
2023/12/26 03:32:22;;;;;;;8.03;1.97;;;7.40;1.00;;;;;;5098629;28;20219;-42
2023/12/26 03:34:48;;;;;;;3.30;2.13;;;7.40;1.00;;;;;;5098271;28;20184;-41
2023/12/26 03:37:14;;;;;;;5.40;2.30;;;7.40;1.00;;;;;;5099662;28;20199;-42
2023/12/26 03:39:41;;;;;;;3.07;2.03;;;7.40;1.00;;;;;;5099277;28;20220;-43
2023/12/26 03:42:06;;;;;;;4.40;1.97;;;7.40;9.20;;;;;;5099775;28;20177;-43
2023/12/26 03:44:32;;;;;;;2.40;2.00;;;7.30;32.20;;;;;;5099254;28;20502;-44
2023/12/26 03:46:58;;;;;;;5.43;1.73;;;7.40;1.00;;;;;;5099076;28;20208;-45
2023/12/26 03:49:23;;;;;;;2.77;1.70;;;7.40;1.00;;;;;;5098885;28;20177;-44
2023/12/26 03:51:49;;;;;;;4.50;2.17;;;7.40;1.00;;;;;;5098841;28;20461;-42
2023/12/26 03:54:14;;;;;;;3.20;1.83;;;7.40;1.00;;;;;;5099136;28;20173;-42
2023/12/26 03:56:40;;;;;;;3.90;1.77;;;7.40;1.00;;;;;;5099141;28;20172;-44
2023/12/26 03:59:06;;;;;;;4.07;1.97;;;7.40;1.00;;;;;;5097947;28;20217;-44
2023/12/26 04:01:31;;;;;;;2.97;1.63;;;7.40;1.00;;;;;;5097772;28;20199;-43
2023/12/26 04:03:57;;;;;;;9.03;2.80;;;7.40;1.00;;;;;;5097472;28;20284;-42
2023/12/26 04:06:23;;;;;;;3.77;1.90;;;7.40;1.00;;;;;;5096158;28;20239;-41
2023/12/26 04:08:49;;;;;;;4.63;1.93;;;7.40;1.00;;;;;;5097400;28;20206;-41
2023/12/26 04:11:14;;;;;;;10.73;2.83;;;7.40;1.00;;;;;;5098352;28;20414;-44
2023/12/26 04:13:40;;;;;;;2.80;1.60;;;7.40;1.00;;;;;;5097868;28;20196;-44
2023/12/26 04:16:06;;;;;;;2.83;1.63;;;7.40;1.00;;;;;;5097884;28;20465;-41
2023/12/26 04:18:33;;;;;;;3.53;1.70;;;7.50;1.00;;;;;;5098904;28;20249;-43
2023/12/26 04:20:58;;;;;;;3.00;1.67;;;7.50;30.60;;;;;;5098694;28;20427;-47
2023/12/26 04:23:24;;;;;;;3.87;1.93;;;7.40;27.50;;;;;;5098383;28;20483;-46
2023/12/26 04:25:49;;;;;;;2.83;1.57;;;7.40;99.90;;;;;;5098422;28;20632;-46
2023/12/26 04:28:15;;;;;;;9.30;2.70;;;7.50;1.00;;;;;;5098458;28;20176;-43
2023/12/26 04:30:41;;;;;;;3.17;1.97;;;7.50;1.00;;;;;;5096585;28;20258;-41
2023/12/26 04:33:09;;;;;;;6.53;2.20;;;7.60;1.00;;;;;;5096589;28;20263;-45
2023/12/26 04:35:35;;;;;;;4.23;2.70;;;7.60;1.00;;;;;;5096071;28;20168;-44
2023/12/26 04:38:01;;;;;;;4.53;2.00;;;7.60;1.00;;;;;;5098298;28;20427;-42
2023/12/26 04:40:26;;;;;;;4.90;2.10;;;7.60;1.00;;;;;;5097940;28;20215;-43
2023/12/26 04:42:52;;;;;;;6.60;2.00;;;7.60;1.00;;;;;;5097135;28;20184;-41
2023/12/26 04:45:18;;;;;;;5.00;2.13;;;7.60;1.00;;;;;;5096275;28;20585;-43
2023/12/26 04:47:43;;;;;;;8.70;2.37;;;7.60;1.00;;;;;;5096116;28;20458;-43
2023/12/26 04:50:09;;;;;;;3.23;1.97;;;7.50;1.00;;;;;;5095014;28;20366;-42
2023/12/26 04:52:34;;;;;;;5.07;1.77;;;7.60;1.00;;;;;;5095328;28;20250;-43
2023/12/26 04:55:00;;;;;;;6.23;2.73;;;7.60;1.00;;;;;;5095821;28;20188;-44
2023/12/26 04:57:26;;;;;;;4.63;1.63;;;7.60;1.00;;;;;;5095291;28;20202;-40
2023/12/26 04:59:52;;;;;;;4.33;2.50;;;7.50;1.00;;;;;;5096325;28;20180;-44
2023/12/26 05:02:17;;;;;;;6.40;1.83;;;7.50;49.70;;;;;;5096410;28;20249;-43
2023/12/26 05:04:43;;;;;;;5.83;2.00;;;7.50;54.60;;;;;;5095744;28;20184;-42
2023/12/26 05:07:08;;;;;;;7.53;2.00;;;7.50;99.90;;;;;;5095540;28;20220;-44
2023/12/26 05:09:35;;;;;;;5.20;2.10;;;7.50;65.90;;;;;;5096546;28;20550;-42
2023/12/26 05:12:01;;;;;;;5.63;2.20;;;7.50;99.90;;;;;;5096573;28;20184;-44
2023/12/26 05:14:26;;;;;;;5.57;2.37;;;7.50;99.90;;;;;;5095674;28;20895;-44
2023/12/26 05:16:52;;;;;;;5.73;2.13;;;7.50;99.90;;;;;;5096934;28;20250;-42
2023/12/26 05:19:18;;;;;;;4.40;2.33;;;7.50;99.90;;;;;;5097064;28;20218;-44
2023/12/26 05:21:43;;;;;;;3.20;1.93;;;7.50;94.60;;;;;;5097215;28;20196;-44
2023/12/26 05:24:09;;;;;;;5.93;2.73;;;7.50;83.60;;;;;;5095617;28;20231;-43
2023/12/26 05:26:42;;;;;;;7.57;2.63;;;7.50;73.80;;;;;;5095315;28;20299;-46
2023/12/26 05:29:08;;;;;;;5.90;1.83;;;7.50;11.90;;;;;;5095751;28;20499;-46
2023/12/26 05:31:34;;;;;;;6.70;3.07;;;7.50;99.90;;;;;;5095570;28;20430;-42
2023/12/26 05:34:02;;;;;;;5.93;2.67;;;7.60;1.00;;;;;;5095759;28;20429;-43
2023/12/26 05:36:27;;;;;;;5.30;2.73;;;7.60;1.00;;;;;;5096074;28;20176;-43
2023/12/26 05:38:53;;;;;;;5.40;2.40;;;7.50;20.80;;;;;;5096106;28;20511;-45
2023/12/26 05:41:19;;;;;;;4.83;2.47;;;7.60;93.80;;;;;;5095594;28;20169;-42
2023/12/26 05:43:44;;;;;;;5.13;1.93;;;7.50;44.40;;;;;;5096789;28;20184;-43
2023/12/26 05:46:10;;;;;;;10.87;2.53;;;7.50;1.00;;;;;;5095790;28;20203;-44
2023/12/26 05:48:36;;;;;;;5.07;2.47;;;7.50;1.00;;;;;;5096240;28;20234;-47
2023/12/26 05:51:01;;;;;;;3.20;2.10;;;7.60;1.00;;;;;;5096263;28;20228;-41
2023/12/26 05:53:30;;;;;;;5.60;1.77;;;7.50;1.00;;;;;;5095134;28;20538;-44
2023/12/26 05:55:56;;;;;;;9.40;2.53;;;7.50;1.00;;;;;;5096030;28;20531;-42
2023/12/26 05:58:25;;;;;;;3.17;2.30;;;7.50;1.00;;;;;;5095752;28;20466;-44
2023/12/26 06:00:51;;;;;;;7.03;2.20;;;7.50;1.00;;;;;;5094969;28;20495;-43
2023/12/26 06:03:17;;;;;;;5.43;2.00;;;7.60;1.00;;;;;;5093699;28;20442;-43
2023/12/26 06:05:42;;;;;;;5.03;2.37;;;7.60;1.00;;;;;;5095552;28;20465;-41
2023/12/26 06:08:09;;;;;;;2.83;2.10;;;7.60;99.90;;;;;;5094163;28;20527;-44
2023/12/26 06:10:35;;;;;;;5.90;2.10;;;7.60;99.90;;;;;;5096089;28;20214;-46
2023/12/26 06:13:00;;;;;;;5.37;2.50;;;7.60;99.90;;;;;;5094829;28;20859;-41
2023/12/26 06:15:26;;;;;;;8.07;2.50;;;7.60;99.90;;;;;;5093462;28;20180;-44
2023/12/26 06:17:51;;;;;;;8.23;3.10;;;7.60;99.90;;;;;;5092848;28;20200;-45
2023/12/26 06:20:21;;;;;;;5.80;2.30;;;7.60;99.90;;;;;;5093641;28;20173;-43
2023/12/26 06:22:46;;;;;;;5.40;2.13;;;7.50;1.00;;;;;;5093985;28;20503;-44
2023/12/26 06:25:12;;;;;;;5.60;2.30;;;7.60;1.00;;;;;;5095656;28;20434;-48
2023/12/26 06:27:38;;;;;;;4.20;2.80;;;7.60;1.00;;;;;;5093985;28;20212;-47
2023/12/26 06:30:04;;;;;;;7.33;3.97;;;7.70;99.90;;;;;;5095117;28;20177;-45
2023/12/26 06:32:30;;;;;;;3.50;2.33;;;7.60;99.90;;;;;;5093549;28;20196;-43
2023/12/26 06:34:55;;;;;;;5.40;2.30;;;7.60;99.90;;;;;;5093248;28;20437;-45
2023/12/26 06:37:21;;;;;;;4.13;2.23;;;7.60;99.90;;;;;;5093321;28;20259;-42
2023/12/26 06:39:46;;;;;;;5.33;2.07;;;7.70;99.90;;;;;;5094741;28;20470;-45
2023/12/26 06:42:12;;;;;;;8.57;2.80;;;7.70;99.90;;;;;;5094189;28;20189;-44
2023/12/26 06:44:38;;;;;;;5.03;2.13;;;7.70;99.90;;;;;;5095231;28;20184;-42
2023/12/26 06:47:03;;;;;;;4.30;2.10;;;7.70;99.90;;;;;;5076901;28;20204;-43
2023/12/26 06:49:29;;;;;;;6.63;3.03;;;7.60;99.90;;;;;;5094694;28;20543;-41
2023/12/26 06:51:55;;;;;;;4.50;2.50;;;7.70;99.90;;;;;;5093281;28;20250;-41
2023/12/26 06:54:20;;;;;;;7.70;2.70;;;7.60;99.90;;;;;;5095488;28;20189;-41
2023/12/26 06:56:46;;;;;;;4.50;2.10;;;7.60;99.90;;;;;;5094041;28;20435;-44
2023/12/26 06:59:11;;;;;;;4.40;2.30;;;7.60;99.90;;;;;;5095175;28;20469;-42
2023/12/26 07:01:37;;;;;;;6.87;2.43;;;7.60;99.90;;;;;;5097117;28;20187;-47
2023/12/26 07:04:03;;;;;;;3.97;2.07;;;7.60;99.90;;;;;;5098018;28;20203;-43
2023/12/26 07:06:28;;;;;;;6.23;2.13;;;7.60;99.90;;;;;;5097912;28;20251;-44
2023/12/26 07:08:54;;;;;;;4.60;2.37;;;7.60;99.90;;;;;;5098001;28;20191;-44
2023/12/26 07:11:19;;;;;;;4.80;2.43;;;7.60;99.90;;;;;;5097729;28;20173;-42
2023/12/26 07:13:45;;;;;;;5.13;2.27;;;7.70;99.90;;;;;;5098481;28;20207;-45
2023/12/26 07:16:10;;;;;;;7.10;2.43;;;7.60;99.90;;;;;;5098160;28;20200;-45
2023/12/26 07:18:36;;;;;;;4.30;2.00;;;7.60;99.90;;;;;;5096919;28;20225;-43
2023/12/26 07:21:01;;;;;;;6.80;2.40;;;7.70;99.90;;;;;;5098599;28;20380;-43
2023/12/26 07:23:27;;;;;;;5.97;1.90;;;7.60;99.90;;;;;;5097206;28;20160;-42
2023/12/26 07:25:53;;;;;;;5.60;2.57;;;7.60;99.90;;;;;;5097405;28;20237;-44
2023/12/26 07:28:18;;;;;;;4.83;2.20;;;7.60;99.90;;;;;;5095516;28;20245;-44
2023/12/26 07:30:44;;;;;;;4.83;2.50;;;7.60;99.90;;;;;;5098132;28;20278;-42
2023/12/26 07:33:10;;;;;;;3.90;2.90;;;7.60;99.90;;;;;;5098084;28;20434;-42
2023/12/26 07:35:37;;;;;;;7.37;2.43;;;7.60;99.90;;;;;;5097801;28;20660;-44
2023/12/26 07:38:03;;;;;;;6.53;2.67;;;7.60;99.90;;;;;;5097492;28;20184;-42
2023/12/26 07:40:30;;;;;;;4.77;2.47;;;7.60;99.90;;;;;;5098248;28;20418;-44
2023/12/26 07:42:56;;;;;;;6.27;2.17;;;7.60;99.90;;;;;;5096727;28;20461;-44
2023/12/26 07:45:24;;;;;;;3.90;2.30;;;7.60;99.90;;;;;;5096044;28;20438;-42
2023/12/26 07:47:53;;;;;;;7.10;2.43;;;7.60;99.90;;;;;;5097084;28;20418;-47
2023/12/26 07:50:19;;;;;;;5.60;2.30;;;7.60;99.90;;;;;;5095879;28;20539;-43
2023/12/26 07:52:44;;;;;;;7.60;2.60;;;7.60;99.90;;;;;;5097599;28;20434;-45
2023/12/26 07:55:11;;;;;;;5.77;2.20;;;7.60;99.90;;;;;;5098838;28;20258;-42
2023/12/26 07:57:37;;;;;;;4.83;2.27;;;7.70;99.90;;;;;;5096456;28;20517;-42
2023/12/26 08:00:03;;;;;;;5.17;2.43;;;7.70;99.90;;;;;;5098415;28;20445;-43
2023/12/26 08:02:29;;;;;;;5.90;2.50;;;7.70;21.20;;;;;;5097695;28;20417;-45
2023/12/26 08:04:54;;;;;;;5.23;2.77;;;7.70;1.00;;;;;;5097395;28;20431;-45
2023/12/26 08:07:20;;;;;;;5.10;2.10;;;7.70;1.00;;;;;;5097872;28;20212;-44
2023/12/26 08:09:46;;;;;;;7.10;2.10;;;7.80;1.00;;;;;;5097468;28;20274;-45
2023/12/26 08:12:11;;;;;;;8.97;2.77;;;7.80;1.00;;;;;;5097939;28;20458;-43
2023/12/26 08:14:37;;;;;;;4.30;2.30;;;7.90;1.00;;;;;;5098208;28;20169;-42
2023/12/26 08:17:02;;;;;;;4.53;2.40;;;7.80;1.00;;;;;;5097800;28;20309;-43
2023/12/26 08:19:29;;;;;;;8.60;2.97;;;7.80;99.90;;;;;;5098234;28;20546;-42
2023/12/26 08:21:55;;;;;;;4.17;2.00;;;7.80;99.90;;;;;;5098349;28;20423;-43
2023/12/26 08:24:21;;;;;;;11.93;2.60;;;7.90;99.90;;;;;;5096694;28;20437;-42
2023/12/26 08:26:52;;;;;;;6.97;2.90;;;7.90;99.90;;;;;;5097901;28;20212;-43
2023/12/26 08:29:17;;;;;;;6.13;2.20;;;7.90;99.90;;;;;;5098013;28;20241;-42
2023/12/26 08:31:43;;;;;;;3.57;2.10;;;7.90;99.90;;;;;;5097483;28;20430;-43
2023/12/26 08:34:09;;;;;;;5.97;2.40;;;8.00;99.90;;;;;;5093696;28;20188;-42
2023/12/26 08:36:34;;;;;;;7.67;2.53;;;8.10;36.00;;;;;;5094767;28;20445;-44
2023/12/26 08:39:00;;;;;;;4.77;2.07;;;8.10;1.00;;;;;;5094617;28;20551;-44
2023/12/26 08:41:25;;;;;;;5.73;2.43;;;8.10;1.00;;;;;;5095315;28;20274;-42
2023/12/26 08:43:51;;;;;;;5.57;2.80;;;8.20;1.00;;;;;;5094803;28;20192;-46
2023/12/26 08:46:17;;;;;;;3.20;1.97;;;8.20;1.00;;;;;;5096043;28;20215;-44
2023/12/26 08:48:42;;;;;;;3.33;1.90;;;8.20;1.00;;;;;;5095843;28;20188;-45
2023/12/26 08:51:08;;;;;;;3.63;1.90;;;8.30;1.00;;;;;;5095162;28;20232;-46
2023/12/26 08:53:33;;;;;;;5.63;2.60;;;8.30;99.90;;;;;;5094866;28;20263;-43
2023/12/26 08:56:03;;;;;;;3.70;2.33;;;8.30;99.90;;;;;;5094962;28;20176;-43
2023/12/26 08:58:31;;;;;;;3.63;1.60;;;8.40;99.90;;;;;;5095095;28;20180;-47
2023/12/26 09:00:59;;;;;;;5.83;2.57;;;8.40;99.90;;;;;;5097556;28;20430;-46
2023/12/26 09:03:24;;;;;;;9.63;2.93;;;8.40;99.90;;;;;;5097677;28;20525;-43
2023/12/26 09:05:50;;;;;;;4.27;2.50;;;8.50;87.80;;;;;;5095951;28;20561;-43
2023/12/26 09:08:15;;;;;;;5.17;2.50;;;8.60;74.00;;;;;;5095666;28;20248;-44
2023/12/26 09:10:42;;;;;;;3.80;1.77;;;8.50;99.90;;;;;;5095419;28;20232;-44
2023/12/26 09:13:07;;;;;;;4.53;2.03;;;8.60;1.00;;;;;;5096149;28;20501;-42
2023/12/26 09:15:33;;;;;;;4.07;2.60;;;8.50;29.50;;;;;;5094845;28;20184;-44
2023/12/26 09:17:58;;;;;;;4.03;2.10;;;8.60;99.90;;;;;;5095238;28;20188;-43
2023/12/26 09:20:24;;;;;;;5.60;2.20;;;8.50;99.90;;;;;;5095907;28;20176;-42
2023/12/26 09:22:50;;;;;;;7.93;2.57;;;8.50;99.90;;;;;;5094332;28;20208;-43
2023/12/26 09:25:16;;;;;;;3.80;2.10;;;8.50;99.90;;;;;;5095593;28;20184;-42
2023/12/26 09:27:42;;;;;;;4.40;2.37;;;8.60;99.90;;;;;;5096679;28;20794;-45
2023/12/26 09:30:09;;;;;;;6.90;2.53;;;8.60;99.90;;;;;;5096918;28;20218;-45
2023/12/26 09:32:34;;;;;;;5.10;2.30;;;8.50;99.90;;;;;;5097258;28;20423;-44
2023/12/26 09:35:00;;;;;;;4.80;2.40;;;8.60;99.90;;;;;;5097643;28;20430;-44
2023/12/26 09:37:26;;;;;;;5.00;2.10;;;8.70;99.90;;;;;;5097448;28;20188;-45
2023/12/26 09:39:51;;;;;;;6.57;2.63;;;8.70;99.90;;;;;;5094995;28;20185;-44
2023/12/26 09:42:21;;;;;;;4.57;2.37;;;8.70;99.90;;;;;;5091911;28;20570;-44
2023/12/26 09:44:47;;;;;;;8.20;4.77;;;8.80;1.00;;;;;;5093372;28;20183;-49
2023/12/26 09:47:13;;;;;;;6.33;2.40;;;9.10;99.90;;;;;;5091672;28;20470;-46
2023/12/26 09:49:42;;;;;;;6.33;2.33;;;9.30;99.90;;;;;;5075097;28;20244;-44
2023/12/26 09:52:08;;;;;;;3.50;1.80;;;9.40;1.00;;;;;;5092927;28;20438;-44
2023/12/26 09:54:35;;;;;;;3.93;2.03;;;9.50;99.90;;;;;;5092824;28;20562;-40
2023/12/26 09:57:01;;;;;;;5.90;2.30;;;9.10;99.90;;;;;;5091998;28;20435;-43
2023/12/26 09:59:26;;;;;;;5.73;2.30;;;9.00;1.00;;;;;;5091357;28;20597;-44
2023/12/26 10:01:52;;;;;;;3.40;1.97;;;8.90;1.00;;;;;;5092509;28;20590;-42
2023/12/26 10:04:18;;;;;;;7.33;2.37;;;8.80;99.90;;;;;;5093814;28;20191;-44
2023/12/26 10:06:43;;;;;;;2.70;2.17;;;8.80;99.90;;;;;;5094443;28;20208;-44
2023/12/26 10:09:09;;;;;;;3.30;2.10;;;8.70;1.00;;;;;;5092814;28;20733;-45
2023/12/26 10:11:35;;;;;;;6.50;1.57;;;8.70;1.00;;;;;;5095571;28;20431;-46
2023/12/26 10:14:00;;;;;;;2.90;1.67;;;8.60;15.30;;;;;;5095867;28;20165;-44
2023/12/26 10:16:26;;;;;;;2.73;2.10;;;8.70;28.10;;;;;;5095847;28;20187;-47
2023/12/26 10:18:51;;;;;;;5.97;2.03;;;8.70;1.00;;;;;;5096154;28;20184;-44
2023/12/26 10:21:17;;;;;;;2.97;1.83;;;8.80;1.00;;;;;;5093899;28;20196;-43
2023/12/26 10:23:44;;;;;;;3.40;2.60;;;8.80;1.00;;;;;;5095441;28;20293;-45
2023/12/26 10:26:09;;;;;;;5.30;2.27;;;8.70;1.00;;;;;;5093881;28;20253;-42
2023/12/26 10:28:39;;;;;;;2.90;2.00;;;8.70;1.00;;;;;;5093244;28;20426;-46
2023/12/26 10:31:13;;;;;;;3.90;2.20;;;8.70;99.90;;;;;;5060393;28;20499;-43
2023/12/26 10:33:39;;;;;;;4.87;2.87;;;8.70;99.90;;;;;;5095620;28;20422;-43
2023/12/26 10:36:05;;;;;;;5.73;2.57;;;8.80;52.90;;;;;;5100338;28;20827;-42
2023/12/26 10:38:31;;;;;;;3.00;2.03;;;8.90;1.00;;;;;;5100291;28;20445;-44
2023/12/26 10:41:00;;;;;;;4.90;2.30;;;8.90;1.00;;;;;;5097943;28;20435;-42
2023/12/26 10:43:33;;;;;;;7.03;2.47;;;8.90;1.00;;;;;;5098612;28;20838;-44
2023/12/26 10:45:59;;;;;;;4.60;2.73;;;8.90;21.60;;;;;;5098777;28;20454;-44
2023/12/26 10:48:29;;;;;;;3.00;2.30;;;9.00;1.00;;;;;;5097937;28;20422;-44
2023/12/26 10:50:55;;;;;;;6.23;2.80;;;8.90;98.70;;;;;;5096576;28;20891;-41
2023/12/26 10:53:21;;;;;;;3.80;2.53;;;8.80;99.90;;;;;;5096434;28;20487;-44
2023/12/26 10:55:48;;;;;;;2.60;2.20;;;9.00;99.90;;;;;;5097059;28;20434;-42
2023/12/26 10:58:20;;;;;;;2.73;1.93;;;9.00;57.50;;;;;;5096445;28;20211;-41
2023/12/26 13:51:30;;;;;;;21.40;9.20;;;8.50;99.90;;;;;;5092306;28;20794;-42
2023/12/26 13:53:55;;;;;;;25.40;10.77;;;8.60;99.90;;;;;;5089588;28;20478;-43
2023/12/26 13:56:21;;;;;;;14.60;7.97;;;8.60;99.90;;;;;;5091002;28;20494;-42
2023/12/26 13:58:47;;;;;;;21.20;10.87;;;8.60;99.90;;;;;;5091681;28;20187;-42
2023/12/26 14:01:17;;;;;;;10.10;5.13;;;8.60;99.90;;;;;;5093620;28;20473;-44
2023/12/26 14:04:01;;;;;;;26.83;11.30;;;8.70;99.90;;;;;;5095535;28;20180;-45
2023/12/26 14:06:28;;;;;;;4.23;2.60;;;8.70;99.90;;;;;;5095725;28;20875;-42
2023/12/26 14:08:54;;;;;;;3.73;1.80;;;8.70;99.90;;;;;;5097957;28;20410;-43
2023/12/26 14:11:20;;;;;;;5.30;2.60;;;8.80;99.90;;;;;;5100688;28;20665;-43
2023/12/26 14:13:46;;;;;;;13.33;6.40;;;8.70;99.90;;;;;;5102960;28;20176;-42
2023/12/26 14:16:12;;;;;;;8.43;3.50;;;8.70;99.90;;;;;;5101529;28;20430;-44
2023/12/26 14:18:37;;;;;;;60.20;27.63;;;8.70;99.90;;;;;;5100418;28;20437;-43
2023/12/26 14:21:03;;;;;;;20.20;10.00;;;8.60;1.00;;;;;;5100160;28;20321;-42
2023/12/26 14:23:29;;;;;;;49.63;22.47;;;8.70;99.90;;;;;;5100952;28;20172;-45
2023/12/26 14:25:55;;;;;;;7.13;3.07;;;8.70;99.90;;;;;;5100790;28;20566;-54
2023/12/26 14:28:20;;;;;;;6.07;3.40;;;8.70;1.00;;;;;;5102592;28;20214;-43
2023/12/26 14:30:46;;;;;;;22.23;9.33;;;8.70;1.00;;;;;;5099521;28;20663;-43
2023/12/26 14:33:19;;;;;;;4.57;2.70;;;8.70;1.00;;;;;;5100296;28;20207;-44
2023/12/26 14:35:48;;;;;;;5.50;3.63;;;8.70;99.90;;;;;;5099720;28;20165;-41
2023/12/26 14:38:13;;;;;;;3.80;2.03;;;8.80;99.90;;;;;;5099553;28;20909;-42
2023/12/26 14:40:39;;;;;;;16.13;7.30;;;8.80;99.90;;;;;;5101360;28;20505;-44
2023/12/26 14:43:05;;;;;;;4.57;2.53;;;8.70;99.90;;;;;;5101406;28;20187;-41
2023/12/26 14:45:30;;;;;;;6.93;2.93;;;8.80;99.90;;;;;;5101294;28;20271;-43
2023/12/26 14:47:56;;;;;;;24.87;8.77;;;8.80;99.90;;;;;;5101594;28;20242;-44
2023/12/26 14:50:21;;;;;;;10.07;3.73;;;8.80;99.90;;;;;;5102017;28;20300;-42
2023/12/26 14:52:47;;;;;;;92.93;60.23;;;8.70;99.90;;;;;;5101715;28;20219;-43
2023/12/26 14:55:12;;;;;;;16.13;14.53;;;8.70;99.90;;;;;;5102938;28;20296;-42
2023/12/26 14:57:38;;;;;;;4.47;3.10;;;8.60;99.90;;;;;;5102356;28;20192;-42
2023/12/26 15:00:04;;;;;;;19.70;17.90;;;8.60;99.90;;;;;;5100790;28;20207;-42
2023/12/26 15:02:32;;;;;;;10.60;9.70;;;8.60;1.00;;;;;;5100009;28;20269;-42
2023/12/26 15:04:58;;;;;;;2.93;2.40;;;8.60;99.90;;;;;;5100422;28;20699;-44
2023/12/26 15:07:23;;;;;;;2.40;1.70;;;8.70;99.90;;;;;;5101235;28;20474;-42
2023/12/26 15:09:49;;;;;;;4.53;1.60;;;8.70;99.90;;;;;;5101390;28;20176;-43
2023/12/26 15:12:14;;;;;;;2.33;1.63;;;8.60;99.90;;;;;;5100856;28;20288;-45
2023/12/26 15:14:40;;;;;;;3.23;1.90;;;8.50;1.00;;;;;;5099658;28;20473;-44
2023/12/26 15:17:06;;;;;;;3.73;2.00;;;8.60;1.00;;;;;;5101422;28;20566;-43
2023/12/26 15:19:31;;;;;;;2.63;1.80;;;8.50;99.90;;;;;;5101336;28;20207;-43
2023/12/26 15:21:57;;;;;;;2.83;1.70;;;8.50;1.00;;;;;;5098056;28;20482;-45
2023/12/26 15:24:22;;;;;;;2.60;1.60;;;8.50;1.00;;;;;;5097666;28;20495;-43
2023/12/26 15:26:48;;;;;;;3.77;1.43;;;8.50;1.00;;;;;;5097827;28;20200;-44
2023/12/26 15:29:14;;;;;;;3.10;2.20;;;8.40;1.00;;;;;;5098079;28;20171;-42
2023/12/26 15:31:40;;;;;;;2.50;1.90;;;8.30;1.00;;;;;;5094542;28;20763;-45
2023/12/26 15:34:06;;;;;;;2.10;1.90;;;8.30;1.00;;;;;;5097944;28;20169;-45
2023/12/26 15:36:32;;;;;;;2.40;1.43;;;8.30;1.00;;;;;;5097974;28;20252;-41
2023/12/26 15:38:58;;;;;;;2.80;1.83;;;8.30;1.00;;;;;;5097343;28;20438;-42
2023/12/26 15:41:24;;;;;;;3.70;1.93;;;8.30;1.00;;;;;;5097756;28;20411;-42
2023/12/26 15:43:52;;;;;;;2.90;1.93;;;8.30;1.00;;;;;;5098487;28;20293;-44